createdAt,value
2022-12-03T00:02:23.881Z,74.69
2022-12-03T00:07:25.153Z,74.94
2022-12-03T00:12:24.443Z,74.82
2022-12-03T00:17:23.750Z,74.62
2022-12-03T00:22:27.800Z,74.53
2022-12-03T00:27:28.183Z,74.44
2022-12-03T00:32:33.707Z,74.53
2022-12-03T00:37:35.369Z,74.30
2022-12-03T00:42:36.010Z,73.99
2022-12-03T00:47:35.801Z,74.42
2022-12-03T00:52:36.596Z,74.36
2022-12-03T00:57:35.739Z,74.13
2022-12-03T01:02:42.270Z,73.86
2022-12-03T01:07:42.648Z,73.50
2022-12-03T01:12:42.323Z,73.82
2022-12-03T01:17:41.960Z,73.58
2022-12-03T01:22:44.152Z,73.49
2022-12-03T01:27:45.905Z,73.53
2022-12-03T01:32:45.197Z,73.64
2022-12-03T01:37:45.582Z,72.73
2022-12-03T01:42:46.512Z,72.75
2022-12-03T01:48:11.829Z,72.86
2022-12-03T01:53:16.917Z,73.06
2022-12-03T01:58:19.910Z,72.86
2022-12-03T02:03:25.630Z,72.82
2022-12-03T02:08:35.394Z,73.37
2022-12-03T02:13:35.015Z,74.13
2022-12-03T02:18:34.451Z,74.26
2022-12-03T02:23:43.447Z,73.61
2022-12-03T02:28:43.975Z,73.20
2022-12-03T02:33:43.249Z,73.17
2022-12-03T02:38:44.689Z,73.06
2022-12-03T02:43:45.415Z,72.80
2022-12-03T02:48:46.011Z,72.95
2022-12-03T02:53:55.370Z,73.05
2022-12-03T02:59:00.904Z,72.75
2022-12-03T03:04:00.875Z,72.73
2022-12-03T03:09:00.691Z,72.67
2022-12-03T03:14:02.683Z,72.69
2022-12-03T03:19:02.272Z,72.54
2022-12-03T03:24:01.167Z,72.31
2022-12-03T03:29:03.292Z,72.54
2022-12-03T03:34:02.769Z,72.61
2022-12-03T03:39:02.937Z,72.52
2022-12-03T03:44:05.302Z,72.48
2022-12-03T03:49:05.838Z,73.01
2022-12-03T03:54:06.627Z,73.56
2022-12-03T03:59:07.119Z,73.56
2022-12-03T04:04:08.792Z,73.78
2022-12-03T04:09:08.021Z,73.54
2022-12-03T04:14:10.097Z,73.24
2022-12-03T04:19:09.238Z,73.80
2022-12-03T04:24:10.303Z,73.70
2022-12-03T04:29:10.758Z,74.01
2022-12-03T04:34:28.984Z,74.22
2022-12-03T04:39:31.109Z,73.96
2022-12-03T04:44:37.648Z,74.21
2022-12-03T04:49:42.866Z,73.96
2022-12-03T04:54:42.172Z,73.95
2022-12-03T04:59:42.675Z,74.14
2022-12-03T05:04:49.863Z,73.78
2022-12-03T05:09:48.781Z,74.05
2022-12-03T05:14:49.211Z,73.94
2022-12-03T05:20:08.713Z,73.61
2022-12-03T05:25:08.748Z,73.92
2022-12-03T05:30:11.368Z,73.83
2022-12-03T05:35:11.695Z,73.68
2022-12-03T05:40:14.583Z,73.72
2022-12-03T05:45:15.046Z,73.58
2022-12-03T05:50:38.464Z,73.48
2022-12-03T05:55:53.649Z,73.41
2022-12-03T06:00:57.453Z,73.26
2022-12-03T06:05:56.380Z,73.61
2022-12-03T06:10:55.421Z,73.84
2022-12-03T06:15:54.622Z,73.74
2022-12-03T06:20:55.047Z,73.49
2022-12-03T06:26:21.017Z,73.27
2022-12-03T06:31:32.372Z,73.48
2022-12-03T06:36:57.092Z,73.57
2022-12-03T06:42:15.105Z,73.88
2022-12-03T06:47:16.847Z,74.18
2022-12-03T06:52:25.069Z,75.07
2022-12-03T06:57:33.351Z,74.94
2022-12-03T07:09:21.670Z,74.65
2022-12-03T07:58:39.818Z,75.64
2022-12-03T08:03:47.142Z,74.59
2022-12-03T08:08:52.652Z,74.05
2022-12-03T08:14:06.186Z,73.59
2022-12-03T08:19:22.334Z,73.27
2022-12-03T08:24:49.014Z,73.25
2022-12-03T08:30:07.042Z,74.21
2022-12-03T08:35:15.786Z,74.38
2022-12-03T08:40:25.054Z,74.01
2022-12-03T08:45:41.132Z,73.87
2022-12-03T08:50:43.965Z,73.18
2022-12-03T08:55:48.168Z,73.60
2022-12-03T09:00:48.651Z,74.18
2022-12-03T09:05:47.716Z,73.84
2022-12-03T09:10:47.046Z,73.39
2022-12-03T09:15:46.264Z,72.61
2022-12-03T09:20:46.701Z,72.22
2022-12-03T09:25:45.974Z,72.05
2022-12-03T09:30:45.156Z,72.31
2022-12-03T09:35:51.151Z,72.58
2022-12-03T09:40:52.699Z,72.35
2022-12-03T09:45:51.839Z,72.10
2022-12-03T09:50:53.243Z,72.79
2022-12-03T09:55:53.101Z,72.61
2022-12-03T10:00:53.592Z,71.64
2022-12-03T10:05:56.245Z,72.47
2022-12-03T10:10:57.779Z,72.32
2022-12-03T10:15:59.867Z,71.98
2022-12-03T10:21:00.544Z,72.79
2022-12-03T10:26:03.142Z,72.37
2022-12-03T10:31:03.636Z,71.85
2022-12-03T10:36:24.810Z,72.67
2022-12-03T10:41:26.172Z,72.53
2022-12-03T10:46:25.354Z,72.59
2022-12-03T10:51:26.132Z,73.30
2022-12-03T10:56:28.431Z,73.75
2022-12-03T11:01:28.060Z,72.96
2022-12-03T11:06:41.522Z,72.82
2022-12-03T11:11:40.429Z,72.51
2022-12-03T11:17:10.234Z,71.41
2022-12-03T11:22:41.640Z,71.63
2022-12-03T11:27:45.031Z,72.24
2022-12-03T11:33:01.038Z,72.15
2022-12-03T11:38:47.401Z,72.05
2022-12-03T11:44:34.092Z,72.24
2022-12-03T11:49:47.419Z,72.73
2022-12-03T11:54:51.512Z,72.53
2022-12-03T12:00:17.668Z,73.22
2022-12-03T12:05:23.656Z,73.32
2022-12-03T12:10:45.918Z,73.25
2022-12-03T12:15:46.795Z,72.46
2022-12-03T12:20:45.801Z,72.60
2022-12-03T12:25:48.244Z,72.03
2022-12-03T12:30:51.331Z,72.22
2022-12-03T12:35:53.267Z,73.43
2022-12-03T12:41:00.279Z,75.12
2022-12-03T12:46:38.701Z,75.13
2022-12-03T12:51:26.712Z,73.67
2022-12-03T12:56:27.609Z,73.80
2022-12-03T13:01:30.505Z,73.53
2022-12-03T13:06:33.173Z,73.22
2022-12-03T13:11:46.929Z,73.87
2022-12-03T13:16:48.396Z,74.39
2022-12-03T13:21:47.398Z,74.33
2022-12-03T13:26:46.323Z,74.21
2022-12-03T13:31:54.361Z,74.39
2022-12-03T13:36:58.443Z,73.94
2022-12-03T13:42:15.397Z,74.58
2022-12-03T13:47:19.788Z,75.36
2022-12-03T13:52:21.900Z,75.95
2022-12-03T13:57:20.826Z,76.35
2022-12-03T14:02:21.592Z,76.23
2022-12-03T14:07:20.485Z,76.75
2022-12-03T14:12:30.842Z,76.76
2022-12-03T14:17:33.604Z,76.93
2022-12-03T14:22:32.643Z,77.18
2022-12-03T14:27:31.654Z,77.21
2022-12-03T14:32:32.109Z,77.68
2022-12-03T14:37:31.237Z,78.07
2022-12-03T14:42:30.112Z,78.66
2022-12-03T14:47:29.050Z,78.68
2022-12-03T14:52:29.381Z,78.39
2022-12-03T14:57:28.373Z,78.68
2022-12-03T15:02:27.498Z,79.08
2022-12-03T15:07:26.427Z,79.02
2022-12-03T15:12:26.751Z,78.68
2022-12-03T15:17:31.347Z,78.48
2022-12-03T15:22:30.858Z,78.22
2022-12-03T15:27:31.055Z,79.51
2022-12-03T15:32:30.041Z,80.89
2022-12-03T15:37:28.875Z,81.03
2022-12-03T15:42:28.235Z,81.09
2022-12-03T15:47:30.711Z,81.08
2022-12-03T15:52:29.647Z,81.12
2022-12-03T15:57:29.904Z,81.72
2022-12-03T16:02:34.019Z,82.47
2022-12-03T16:07:33.105Z,82.48
2022-12-03T16:12:32.202Z,82.40
2022-12-03T16:17:32.450Z,83.53
2022-12-03T16:22:31.303Z,83.49
2022-12-03T16:27:30.904Z,83.81
2022-12-03T16:32:29.849Z,84.52
2022-12-03T16:37:30.192Z,84.67
2022-12-03T16:42:29.023Z,85.25
2022-12-03T16:47:33.635Z,84.49
2022-12-03T16:52:34.770Z,83.82
2022-12-03T16:57:34.130Z,83.52
2022-12-03T17:02:33.033Z,84.63
2022-12-03T17:07:32.051Z,84.34
2022-12-03T17:12:54.156Z,84.58
2022-12-03T17:17:51.353Z,85.70
2022-12-03T17:22:51.187Z,85.08
2022-12-03T17:27:52.489Z,84.33
2022-12-03T17:32:51.611Z,84.46
2022-12-03T17:37:50.506Z,83.94
2022-12-03T17:42:49.457Z,85.08
2022-12-03T17:47:49.764Z,84.20
2022-12-03T17:52:48.601Z,83.66
2022-12-03T17:57:47.470Z,83.42
2022-12-03T18:02:46.325Z,84.64
2022-12-03T18:07:46.655Z,85.33
2022-12-03T18:12:45.464Z,85.93
2022-12-03T18:17:44.329Z,86.65
2022-12-03T18:22:43.231Z,86.68
2022-12-03T18:27:43.522Z,87.39
2022-12-03T18:32:42.456Z,87.00
2022-12-03T18:37:41.396Z,87.13
2022-12-03T18:42:40.245Z,87.74
2022-12-03T18:47:40.624Z,87.09
2022-12-03T18:52:40.070Z,87.32
2022-12-03T18:57:38.818Z,86.70
2022-12-03T19:03:01.775Z,87.93
2022-12-03T19:07:58.088Z,86.98
2022-12-03T19:12:57.098Z,87.82
2022-12-03T19:17:55.962Z,88.90
2022-12-03T19:22:54.919Z,87.66
2022-12-03T19:27:57.207Z,87.63
2022-12-03T19:32:56.063Z,86.81
2022-12-03T19:37:55.788Z,87.07
2022-12-03T19:42:56.179Z,86.87
2022-12-03T19:47:55.018Z,85.68
2022-12-03T19:52:53.908Z,87.01
2022-12-03T19:57:52.827Z,87.68
2022-12-03T20:02:53.099Z,87.22
2022-12-03T20:07:52.046Z,88.65
2022-12-03T20:12:51.045Z,88.32
2022-12-03T20:17:49.908Z,88.24
2022-12-03T20:22:50.220Z,89.42
2022-12-03T20:27:49.103Z,89.48
2022-12-03T20:32:47.869Z,90.31
2022-12-03T20:37:46.785Z,90.16
2022-12-03T20:42:50.152Z,89.82
2022-12-03T20:47:48.996Z,89.28
2022-12-03T20:53:09.410Z,88.13
2022-12-03T20:58:08.219Z,88.59
2022-12-03T21:03:07.116Z,88.29
2022-12-03T21:08:06.434Z,88.40
2022-12-03T21:13:05.374Z,88.54
2022-12-03T21:18:05.965Z,87.64
2022-12-03T21:23:04.952Z,86.19
2022-12-03T21:28:04.369Z,87.28
2022-12-03T21:33:03.274Z,86.15
2022-12-03T21:38:03.581Z,87.33
2022-12-03T21:43:02.450Z,87.78
2022-12-03T21:48:01.349Z,88.83
2022-12-03T21:53:00.605Z,88.55
2022-12-03T21:58:00.916Z,89.49
2022-12-03T22:02:59.963Z,89.28
2022-12-03T22:07:59.037Z,89.95
2022-12-03T22:12:58.010Z,89.80
2022-12-03T22:17:58.218Z,89.02
2022-12-03T22:22:56.957Z,88.26
2022-12-03T22:27:55.789Z,88.29
2022-12-03T22:32:54.685Z,89.51
2022-12-03T22:37:54.922Z,88.85
2022-12-03T22:42:54.165Z,89.57
2022-12-03T22:47:53.023Z,89.82
2022-12-03T22:52:51.925Z,91.10
2022-12-03T22:57:52.147Z,90.15
2022-12-03T23:02:52.038Z,89.63
2022-12-03T23:07:52.312Z,90.32
2022-12-03T23:12:52.559Z,89.97
2022-12-03T23:17:52.700Z,90.21
2022-12-03T23:22:51.618Z,89.44
2022-12-03T23:27:50.458Z,89.67
2022-12-03T23:32:50.698Z,88.85
2022-12-03T23:37:49.510Z,87.67
2022-12-03T23:42:48.295Z,87.09
2022-12-03T23:47:47.189Z,87.53
2022-12-03T23:52:47.375Z,86.73
2022-12-03T23:57:46.180Z,88.25
